Cala Paguro — D5KY9 — position and weather

sailwx.info

Track history (hours):
 
Tides and Currents Weather Stations Pressure Air Temp Water Temp Dewpoint Dewpoint Depression Visibility Wind Speed Wind Dir Waves Ship Positions

Cala Paguro

Last reported at 2017-Oct-17 23:43 UTC. Time now 2017-Oct-18 02:22 UTC.
Position N 28°55' W 012°56'.

Length 172 m; draft 6.5 m.

Type: Cargo ship. MMSI: 636017440.

Date/timePositionNaut miles runAvg speedWind from/ knotsBaromVisibWave heightAir tempDewpointWater temp
2017-Oct-17 23:43N 28°55' W 012°56'1514.5
2017-Oct-17 22:40N 28°43' W 013°07'315.2
2017-Oct-17 22:30N 28°41' W 013°09'714.8
2017-Oct-17 22:00N 28°35' W 013°14'714.5
2017-Oct-17 21:30N 28°29' W 013°18'2515.0
2017-Oct-17 19:51N 28°09' W 013°35'515.7
2017-Oct-17 19:30N 28°05' W 013°39'815.6
2017-Oct-17 19:00N 27°58' W 013°43'815.7
2017-Oct-17 18:30N 27°52' W 013°48'815.8
2017-Oct-17 18:00N 27°45' W 013°53'815.8
2017-Oct-17 17:30N 27°39' W 013°58'815.5
2017-Oct-17 17:00N 27°32' W 014°03'815.3
2017-Oct-17 16:30N 27°26' W 014°08'815.1
2017-Oct-17 16:00N 27°20' W 014°13'715.0
2017-Oct-17 15:31N 27°13' W 014°17'714.9
2017-Oct-17 15:00N 27°07' W 014°22'714.7
2017-Oct-17 14:30N 27°01' W 014°27'714.6
2017-Oct-17 14:00N 26°55' W 014°31'714.7
2017-Oct-17 13:30N 26°48' W 014°35'714.7
2017-Oct-17 13:00N 26°42' W 014°39'714.8
2017-Oct-17 12:30N 26°36' W 014°43'815.0
2017-Oct-17 12:00N 26°30' W 014°48'715.0
2017-Oct-17 11:30N 26°23' W 014°53'1015.0
2017-Oct-17 10:49N 26°15' W 014°59'514.9
2017-Oct-17 10:30N 26°11' W 015°01'914.9
2017-Oct-17 09:55N 26°03' W 015°07'714.6
2017-Oct-17 09:27N 25°58' W 015°11'714.5
2017-Oct-17 08:57N 25°52' W 015°16'1514.4
2017-Oct-17 07:54N 25°40' W 015°25'614.2
2017-Oct-17 07:29N 25°34' W 015°29'713.8
2017-Oct-17 06:59N 25°29' W 015°33'714.8
2017-Oct-17 06:29N 25°22' W 015°37'2114.4
2017-Oct-17 05:01N 25°04' W 015°50'1414.4
2017-Oct-17 04:01N 24°52' W 015°58'  
2017-Oct-14 04:03N 08°17' W 014°36'316.2
2017-Oct-14 03:52N 08°15' W 014°33'72714.4
2017-Oct-12 01:30N 04°15' W 003°03'714.3
2017-Oct-12 00:59N 04°17' W 002°56'714.5
2017-Oct-12 00:29N 04°19' W 002°49'814.9
2017-Oct-11 23:59N 04°21' W 002°42'815.1
2017-Oct-11 23:29N 04°23' W 002°35'714.9
2017-Oct-11 22:59N 04°25' W 002°28'714.8
2017-Oct-11 22:29N 04°27' W 002°20'714.4
2017-Oct-11 21:59N 04°30' W 002°14'714.5
2017-Oct-11 21:29N 04°34' W 002°08'714.5
2017-Oct-11 20:59N 04°38' W 002°01'814.2
2017-Oct-11 20:27N 04°43' W 001°56'1114.0
2017-Oct-11 19:39N 04°48' W 001°46'313.8
2017-Oct-11 19:27N 04°50' W 001°44'3 4.2
2017-Oct-11 18:42N 04°53' W 001°44'0 0.1
2017-Oct-11 17:20N 04°53' W 001°44'0 0.0
2017-Oct-11 16:43N 04°53' W 001°44'79 4.4
2017-Oct-10 22:34N 05°14' W 000°27'213.3
2017-Oct-10 22:24N 05°14' W 000°25'513.1
2017-Oct-10 22:01N 05°15' W 000°20'713.2
2017-Oct-10 21:31N 05°17' W 000°14'713.1
2017-Oct-10 21:01N 05°20' W 000°08'613.0
2017-Oct-10 20:31N 05°23' W 000°02'612.4
2017-Oct-10 20:01N 05°25' E 000°04'612.3
2017-Oct-10 19:31N 05°29' E 000°09'612.4
2017-Oct-10 19:01N 05°30' E 000°15'612.5
2017-Oct-10 18:31N 05°31' E 000°21'612.5
2017-Oct-10 18:01N 05°31' E 000°27'612.4
2017-Oct-10 17:29N 05°31' E 000°34'1212.4
2017-Oct-10 16:32N 05°32' E 000°46'212.5
2017-Oct-10 16:25N 05°32' E 000°47'2413.1
2017-Oct-10 14:35N 05°39' E 001°10'86 4.7
2017-Oct-09 20:31N 06°21' E 002°25'  
Track history (hours):
 
Tides and Currents Weather Stations Pressure Air Temp Water Temp Dewpoint Dewpoint Depression Visibility Wind Speed Wind Dir Waves Ship Positions

Cala Paguro

Last reported at 2017-Oct-17 23:43 UTC. Time now 2017-Oct-18 02:22 UTC.
Position N 28°55' W 012°56'.

Length 172 m; draft 6.5 m.

Type: Cargo ship. MMSI: 636017440.

Date/timePositionNaut miles runAvg speedWind from/ knotsBaromVisibWave heightAir tempDewpointWater temp
2017-Oct-17 23:43N 28°55' W 012°56'1514.5
2017-Oct-17 22:40N 28°43' W 013°07'315.2
2017-Oct-17 22:30N 28°41' W 013°09'714.8
2017-Oct-17 22:00N 28°35' W 013°14'714.5
2017-Oct-17 21:30N 28°29' W 013°18'2515.0
2017-Oct-17 19:51N 28°09' W 013°35'515.7
2017-Oct-17 19:30N 28°05' W 013°39'815.6
2017-Oct-17 19:00N 27°58' W 013°43'815.7
2017-Oct-17 18:30N 27°52' W 013°48'815.8
2017-Oct-17 18:00N 27°45' W 013°53'815.8
2017-Oct-17 17:30N 27°39' W 013°58'815.5
2017-Oct-17 17:00N 27°32' W 014°03'815.3
2017-Oct-17 16:30N 27°26' W 014°08'815.1
2017-Oct-17 16:00N 27°20' W 014°13'715.0
2017-Oct-17 15:31N 27°13' W 014°17'714.9
2017-Oct-17 15:00N 27°07' W 014°22'714.7
2017-Oct-17 14:30N 27°01' W 014°27'714.6
2017-Oct-17 14:00N 26°55' W 014°31'714.7
2017-Oct-17 13:30N 26°48' W 014°35'714.7
2017-Oct-17 13:00N 26°42' W 014°39'714.8
2017-Oct-17 12:30N 26°36' W 014°43'815.0
2017-Oct-17 12:00N 26°30' W 014°48'715.0
2017-Oct-17 11:30N 26°23' W 014°53'1015.0
2017-Oct-17 10:49N 26°15' W 014°59'514.9
2017-Oct-17 10:30N 26°11' W 015°01'914.9
2017-Oct-17 09:55N 26°03' W 015°07'714.6
2017-Oct-17 09:27N 25°58' W 015°11'714.5
2017-Oct-17 08:57N 25°52' W 015°16'1514.4
2017-Oct-17 07:54N 25°40' W 015°25'614.2
2017-Oct-17 07:29N 25°34' W 015°29'713.8
2017-Oct-17 06:59N 25°29' W 015°33'714.8
2017-Oct-17 06:29N 25°22' W 015°37'2114.4
2017-Oct-17 05:01N 25°04' W 015°50'1414.4
2017-Oct-17 04:01N 24°52' W 015°58'  
2017-Oct-14 04:03N 08°17' W 014°36'316.2
2017-Oct-14 03:52N 08°15' W 014°33'72714.4
2017-Oct-12 01:30N 04°15' W 003°03'714.3
2017-Oct-12 00:59N 04°17' W 002°56'714.5
2017-Oct-12 00:29N 04°19' W 002°49'814.9
2017-Oct-11 23:59N 04°21' W 002°42'815.1
2017-Oct-11 23:29N 04°23' W 002°35'714.9
2017-Oct-11 22:59N 04°25' W 002°28'714.8
2017-Oct-11 22:29N 04°27' W 002°20'714.4
2017-Oct-11 21:59N 04°30' W 002°14'714.5
2017-Oct-11 21:29N 04°34' W 002°08'714.5
2017-Oct-11 20:59N 04°38' W 002°01'814.2
2017-Oct-11 20:27N 04°43' W 001°56'1114.0
2017-Oct-11 19:39N 04°48' W 001°46'313.8
2017-Oct-11 19:27N 04°50' W 001°44'3 4.2
2017-Oct-11 18:42N 04°53' W 001°44'0 0.1
2017-Oct-11 17:20N 04°53' W 001°44'0 0.0
2017-Oct-11 16:43N 04°53' W 001°44'79 4.4
2017-Oct-10 22:34N 05°14' W 000°27'213.3
2017-Oct-10 22:24N 05°14' W 000°25'513.1
2017-Oct-10 22:01N 05°15' W 000°20'713.2
2017-Oct-10 21:31N 05°17' W 000°14'713.1
2017-Oct-10 21:01N 05°20' W 000°08'613.0
2017-Oct-10 20:31N 05°23' W 000°02'612.4
2017-Oct-10 20:01N 05°25' E 000°04'612.3
2017-Oct-10 19:31N 05°29' E 000°09'612.4
2017-Oct-10 19:01N 05°30' E 000°15'612.5
2017-Oct-10 18:31N 05°31' E 000°21'612.5
2017-Oct-10 18:01N 05°31' E 000°27'612.4
2017-Oct-10 17:29N 05°31' E 000°34'1212.4
2017-Oct-10 16:32N 05°32' E 000°46'212.5
2017-Oct-10 16:25N 05°32' E 000°47'2413.1
2017-Oct-10 14:35N 05°39' E 001°10'86 4.7
2017-Oct-09 20:31N 06°21' E 002°25'  

Dump ship's entire track history